Time;durP1;ratioP1;P1;durP2;ratioP2;P2;SDS_P1;SDS_P2;PMS_P1;PMS_P2;Temp;Humidity;BMP_temperature;BMP_pressure;BME280_temperature;BME280_humidity;BME280_pressure;Samples;Min_cycle;Max_cycle;Signal;HPM_P1;HPM_P2
2023/05/10 00:00:25;;;;;;;1.02;1.00;;;18.80;64.70;;;;;;5114345;28;20181;-62
2023/05/10 00:02:50;;;;;;;1.00;1.00;;;18.80;64.70;;;;;;5113727;28;20221;-62
2023/05/10 00:05:16;;;;;;;1.10;1.00;;;18.80;64.70;;;;;;5113987;28;20205;-62
2023/05/10 00:07:44;;;;;;;1.20;1.10;;;18.80;64.70;;;;;;5114287;28;20173;-62
2023/05/10 00:10:10;;;;;;;1.00;1.00;;;18.80;64.70;;;;;;5113092;28;20184;-62
2023/05/10 00:12:35;;;;;;;0.88;0.88;;;18.80;64.70;;;;;;5114052;28;20169;-62
2023/05/10 00:15:01;;;;;;;1.10;1.10;;;18.80;64.70;;;;;;5113662;28;20169;-61
2023/05/10 00:17:27;;;;;;;1.10;1.02;;;18.70;64.80;;;;;;5113460;28;20260;-62
2023/05/10 00:19:52;;;;;;;1.25;1.00;;;18.80;64.60;;;;;;5113714;28;20183;-62
2023/05/10 00:22:18;;;;;;;1.30;1.10;;;18.80;64.60;;;;;;5112675;28;20232;-61
2023/05/10 00:24:43;;;;;;;0.88;0.88;;;18.80;64.60;;;;;;5113771;28;20296;-61
2023/05/10 00:27:09;;;;;;;1.23;1.17;;;18.80;64.60;;;;;;5113781;28;20263;-62
2023/05/10 00:29:34;;;;;;;1.75;1.10;;;18.80;64.60;;;;;;5113045;28;20624;-62
2023/05/10 00:32:00;;;;;;;1.30;1.20;;;18.80;64.60;;;;;;5113809;28;20177;-62
2023/05/10 00:34:25;;;;;;;1.27;1.17;;;18.70;64.50;;;;;;5113350;28;20255;-63
2023/05/10 00:36:51;;;;;;;0.98;0.98;;;18.80;64.60;;;;;;5113004;28;20251;-62
2023/05/10 00:39:16;;;;;;;1.30;1.20;;;18.80;64.60;;;;;;5113118;28;20258;-62
2023/05/10 00:41:42;;;;;;;1.20;1.10;;;18.70;64.60;;;;;;5113426;28;20608;-62
2023/05/10 00:44:07;;;;;;;1.55;1.00;;;18.80;64.60;;;;;;5112412;28;20698;-62
2023/05/10 00:46:33;;;;;;;1.02;1.02;;;18.70;64.50;;;;;;5113518;28;20275;-61
2023/05/10 00:48:58;;;;;;;0.90;0.90;;;18.70;64.50;;;;;;5112345;28;20264;-62
2023/05/10 00:51:24;;;;;;;1.50;1.40;;;18.70;64.50;;;;;;5112431;28;20502;-61
2023/05/10 00:53:50;;;;;;;2.97;1.10;;;18.70;64.50;;;;;;5113262;28;20177;-61
2023/05/10 00:56:16;;;;;;;1.05;1.05;;;18.80;64.60;;;;;;5111365;28;20222;-61
2023/05/10 00:58:42;;;;;;;1.30;1.20;;;18.70;64.50;;;;;;5111636;28;20169;-62
2023/05/10 01:01:08;;;;;;;1.00;1.00;;;18.70;64.50;;;;;;5113305;28;20196;-62
2023/05/10 01:03:33;;;;;;;1.23;1.13;;;18.70;64.50;;;;;;5112344;28;20185;-62
2023/05/10 01:05:59;;;;;;;1.00;1.00;;;18.70;64.50;;;;;;5112628;28;20215;-62
2023/05/10 01:08:25;;;;;;;1.40;1.30;;;18.70;64.50;;;;;;5113044;28;20256;-62
2023/05/10 01:10:52;;;;;;;1.23;1.10;;;18.70;64.50;;;;;;5112050;28;20201;-62
2023/05/10 01:13:23;;;;;;;1.40;1.20;;;18.70;64.50;;;;;;5112544;28;20252;-61
2023/05/10 01:15:48;;;;;;;1.30;1.25;;;18.70;64.50;;;;;;5095657;28;20643;-61
2023/05/10 01:18:14;;;;;;;1.30;1.20;;;18.70;64.50;;;;;;5111839;28;20222;-61
2023/05/10 01:20:41;;;;;;;1.30;1.20;;;18.70;64.50;;;;;;5094515;28;20240;-61
2023/05/10 01:23:22;;;;;;;1.10;1.10;;;18.70;64.50;;;;;;5111528;28;20231;-61
2023/05/10 01:26:24;;;;;;;1.40;1.30;;;18.70;64.50;;;;;;5112621;28;20204;-61
2023/05/10 01:28:49;;;;;;;1.38;1.27;;;18.70;64.50;;;;;;5112166;28;20165;-62
2023/05/10 01:31:34;;;;;;;1.42;1.33;;;18.70;64.50;;;;;;5113046;28;20177;-63
2023/05/10 01:34:02;;;;;;;1.50;1.40;;;18.70;64.50;;;;;;5096174;28;20227;-62
2023/05/10 01:36:45;;;;;;;1.30;1.20;;;18.70;64.50;;;;;;5111727;28;20173;-61
2023/05/10 01:39:26;;;;;;;1.60;1.48;;;18.70;64.50;;;;;;5111730;28;20173;-61
2023/05/10 01:41:58;;;;;;;1.45;1.35;;;18.70;64.50;;;;;;5113028;28;20247;-61
2023/05/10 01:44:48;;;;;;;1.45;1.35;;;18.70;64.50;;;;;;5111824;28;20212;-62
2023/05/10 01:47:35;;;;;;;1.60;1.50;;;18.70;64.50;;;;;;5111924;28;20678;-61
2023/05/10 01:50:06;;;;;;;1.85;1.65;;;18.70;64.50;;;;;;5111810;28;20233;-62
2023/05/10 01:52:38;;;;;;;1.90;1.75;;;18.70;64.50;;;;;;5111813;28;20589;-61
2023/05/10 01:55:09;;;;;;;2.00;1.50;;;18.70;64.50;;;;;;5111220;28;20169;-61
2023/05/10 01:57:35;;;;;;;1.90;1.80;;;18.70;64.50;;;;;;5113023;28;20173;-61
2023/05/10 02:00:03;;;;;;;1.77;1.65;;;18.70;64.50;;;;;;5094797;28;20623;-62
2023/05/10 02:02:29;;;;;;;2.33;1.77;;;18.70;64.50;;;;;;5111922;28;20220;-62
2023/05/10 02:04:55;;;;;;;1.88;1.77;;;18.60;64.50;;;;;;5094818;28;20221;-62
2023/05/10 02:07:20;;;;;;;1.88;1.77;;;18.70;64.50;;;;;;5115312;28;20204;-62
2023/05/10 02:09:49;;;;;;;1.90;1.80;;;18.70;64.50;;;;;;5114838;28;20189;-62
2023/05/10 02:12:14;;;;;;;1.88;1.77;;;18.70;64.50;;;;;;5098499;28;20173;-61
2023/05/10 02:14:40;;;;;;;2.28;2.08;;;18.70;64.50;;;;;;5115676;28;20557;-61
2023/05/10 02:17:05;;;;;;;2.00;1.90;;;18.70;64.50;;;;;;5114970;28;20181;-61
2023/05/10 02:19:31;;;;;;;1.98;1.85;;;18.60;64.50;;;;;;5098236;28;20631;-61
2023/05/10 02:21:57;;;;;;;2.00;1.85;;;18.60;64.50;;;;;;5115438;28;21028;-62
2023/05/10 02:24:22;;;;;;;2.20;1.90;;;18.60;64.50;;;;;;5114742;28;20173;-61
2023/05/10 02:26:48;;;;;;;2.42;2.22;;;18.70;64.50;;;;;;5115210;28;20177;-61
2023/05/10 02:29:14;;;;;;;2.25;2.05;;;18.60;64.50;;;;;;5115287;28;20173;-62
2023/05/10 02:31:39;;;;;;;2.00;1.80;;;18.60;64.50;;;;;;5097962;28;20177;-63
2023/05/10 02:34:06;;;;;;;1.92;1.80;;;18.60;64.50;;;;;;5114453;28;20627;-62
2023/05/10 02:36:31;;;;;;;2.30;2.08;;;18.60;64.50;;;;;;5114200;28;20250;-62
2023/05/10 02:38:57;;;;;;;2.40;2.20;;;18.60;64.50;;;;;;5097980;28;20187;-61
2023/05/10 02:41:23;;;;;;;2.22;2.10;;;18.60;64.50;;;;;;5114675;28;20260;-61
2023/05/10 02:43:50;;;;;;;2.58;2.20;;;18.70;64.50;;;;;;5114069;28;20631;-62
2023/05/10 02:46:16;;;;;;;2.30;2.10;;;18.60;64.50;;;;;;5114575;28;20212;-62
2023/05/10 02:48:41;;;;;;;2.72;2.53;;;18.60;64.50;;;;;;5115781;28;20648;-62
2023/05/10 02:51:07;;;;;;;3.00;2.72;;;18.60;64.50;;;;;;5114924;28;20188;-62
2023/05/10 02:53:35;;;;;;;2.95;2.75;;;18.60;64.50;;;;;;5116231;27;20165;-61
2023/05/10 02:56:04;;;;;;;2.42;2.28;;;18.60;64.50;;;;;;5114743;28;20521;-61
2023/05/10 02:58:29;;;;;;;2.90;2.63;;;18.60;64.50;;;;;;5113681;28;20201;-61
2023/05/10 03:00:55;;;;;;;3.03;2.65;;;18.60;64.50;;;;;;5115458;28;20204;-61
2023/05/10 03:03:20;;;;;;;2.70;2.50;;;18.60;64.50;;;;;;5115139;28;20177;-62
2023/05/10 03:05:46;;;;;;;2.83;2.60;;;18.60;64.50;;;;;;5114919;28;20250;-62
2023/05/10 03:08:11;;;;;;;2.35;2.15;;;18.60;64.50;;;;;;5115269;28;20192;-62
2023/05/10 03:10:41;;;;;;;2.42;2.22;;;18.60;64.50;;;;;;5114271;28;20176;-62
2023/05/10 03:13:06;;;;;;;3.10;2.83;;;18.60;64.50;;;;;;5113393;28;20177;-61
2023/05/10 03:15:49;;;;;;;2.60;2.40;;;18.60;64.50;;;;;;5115281;28;20650;-61
2023/05/10 03:18:45;;;;;;;3.40;2.85;;;18.60;64.60;;;;;;5112286;28;20229;-61
2023/05/10 03:21:12;;;;;;;2.88;2.63;;;18.60;64.60;;;;;;5114953;28;20264;-61
2023/05/10 03:23:43;;;;;;;2.78;2.53;;;18.50;64.50;;;;;;5114983;28;20229;-61
2023/05/10 03:26:08;;;;;;;2.85;2.65;;;18.60;64.60;;;;;;5112757;28;20679;-61
2023/05/10 03:28:35;;;;;;;2.88;2.55;;;18.60;64.60;;;;;;5115235;28;20192;-62
2023/05/10 03:31:00;;;;;;;2.75;2.55;;;18.50;64.50;;;;;;5114063;28;20180;-63
2023/05/10 03:33:26;;;;;;;2.97;2.65;;;18.60;64.60;;;;;;5112965;28;20169;-62
2023/05/10 03:35:51;;;;;;;2.95;2.72;;;18.50;64.50;;;;;;5114796;28;20169;-62
2023/05/10 03:38:17;;;;;;;3.00;2.80;;;18.50;64.50;;;;;;5114448;28;20238;-62
2023/05/10 03:40:42;;;;;;;2.65;2.45;;;18.60;64.60;;;;;;5114042;28;20173;-61
2023/05/10 03:43:08;;;;;;;3.35;3.05;;;18.50;64.60;;;;;;5114638;28;20177;-61
2023/05/10 03:45:33;;;;;;;3.33;3.03;;;18.60;64.60;;;;;;5114790;28;20213;-61
2023/05/10 03:47:59;;;;;;;3.90;3.50;;;18.50;64.60;;;;;;5113848;28;20173;-62
2023/05/10 03:50:24;;;;;;;3.97;3.30;;;18.50;64.50;;;;;;5114445;28;20191;-61
2023/05/10 03:52:50;;;;;;;3.63;3.33;;;18.50;64.50;;;;;;5114672;28;20178;-61
2023/05/10 03:55:16;;;;;;;4.05;3.17;;;18.60;64.60;;;;;;5113456;28;20180;-61
2023/05/10 03:57:41;;;;;;;3.65;3.30;;;18.50;64.50;;;;;;5114732;28;20187;-61
2023/05/10 04:00:08;;;;;;;3.17;2.83;;;18.60;64.60;;;;;;5113710;28;20606;-62
2023/05/10 04:02:33;;;;;;;3.28;3.00;;;18.50;64.50;;;;;;5114426;28;20255;-61
2023/05/10 04:04:59;;;;;;;3.65;3.35;;;18.50;65.50;;;;;;5114213;28;20304;-62
2023/05/10 04:07:24;;;;;;;3.50;3.20;;;18.50;64.60;;;;;;5113347;28;20276;-62
2023/05/10 04:09:50;;;;;;;3.70;3.40;;;18.50;64.60;;;;;;5114081;28;20169;-61
2023/05/10 04:12:15;;;;;;;4.00;3.50;;;18.50;64.60;;;;;;5114053;28;20580;-61
2023/05/10 04:14:41;;;;;;;3.67;3.38;;;18.50;64.60;;;;;;5113419;28;20177;-61
2023/05/10 04:17:06;;;;;;;3.80;3.40;;;18.50;64.60;;;;;;5113867;28;20173;-61
2023/05/10 04:19:32;;;;;;;3.90;3.60;;;18.50;64.60;;;;;;5113940;28;20169;-61
2023/05/10 04:21:58;;;;;;;5.18;4.00;;;18.50;64.60;;;;;;5113178;28;20220;-61
2023/05/10 04:24:23;;;;;;;3.60;3.30;;;18.50;64.60;;;;;;5113637;28;20543;-61
2023/05/10 04:26:49;;;;;;;4.35;3.95;;;18.50;64.60;;;;;;5114058;28;20173;-61
2023/05/10 04:29:14;;;;;;;4.13;3.80;;;18.50;64.60;;;;;;5112920;28;20238;-62
2023/05/10 04:31:40;;;;;;;4.10;3.78;;;18.50;64.60;;;;;;5113929;28;20176;-62
2023/05/10 04:34:05;;;;;;;3.97;3.63;;;18.50;64.60;;;;;;5113602;28;20172;-62
2023/05/10 04:36:32;;;;;;;4.43;4.03;;;18.50;64.60;;;;;;5113073;28;20169;-62
2023/05/10 04:38:58;;;;;;;4.45;4.05;;;18.50;64.60;;;;;;5113740;28;20639;-61
2023/05/10 04:41:24;;;;;;;3.95;3.50;;;18.50;64.60;;;;;;5113239;28;20184;-61
2023/05/10 04:43:50;;;;;;;3.97;3.58;;;18.50;64.50;;;;;;5113018;28;20546;-61
2023/05/10 04:46:15;;;;;;;4.03;3.72;;;18.50;64.50;;;;;;5113448;28;20216;-61
2023/05/10 04:48:41;;;;;;;4.75;4.28;;;18.50;64.50;;;;;;5113521;28;20169;-62
2023/05/10 04:51:06;;;;;;;4.63;4.22;;;18.50;64.50;;;;;;5112570;28;20180;-61
2023/05/10 04:53:32;;;;;;;4.13;3.72;;;18.50;64.50;;;;;;5113237;28;20536;-61
2023/05/10 04:55:58;;;;;;;4.35;3.95;;;18.50;64.60;;;;;;5113477;28;20210;-61
2023/05/10 04:58:23;;;;;;;4.35;3.90;;;18.50;64.60;;;;;;5112559;28;20615;-62
2023/05/10 05:00:49;;;;;;;4.82;4.38;;;18.50;64.50;;;;;;5113499;28;20544;-61
2023/05/10 05:03:14;;;;;;;4.63;4.22;;;18.50;64.50;;;;;;5113187;28;20635;-62
2023/05/10 05:05:40;;;;;;;5.05;4.55;;;18.50;64.60;;;;;;5112602;28;20663;-62
2023/05/10 05:08:05;;;;;;;4.53;4.13;;;18.50;64.60;;;;;;5112995;28;20176;-62
2023/05/10 05:10:31;;;;;;;4.97;4.50;;;18.50;64.60;;;;;;5112852;28;20177;-61
2023/05/10 05:12:56;;;;;;;4.68;4.28;;;18.40;64.50;;;;;;5113338;28;20161;-61
2023/05/10 05:15:22;;;;;;;4.20;3.80;;;18.40;64.50;;;;;;5112819;28;20611;-61
2023/05/10 05:17:47;;;;;;;5.43;4.90;;;18.40;64.50;;;;;;5112490;28;20169;-61
2023/05/10 05:20:13;;;;;;;5.28;4.22;;;18.40;64.40;;;;;;5112924;28;20173;-61
2023/05/10 05:22:38;;;;;;;4.60;4.00;;;18.40;64.50;;;;;;5112908;28;20224;-61
2023/05/10 05:25:05;;;;;;;4.38;3.97;;;18.40;64.40;;;;;;5112549;28;20205;-61
2023/05/10 05:27:31;;;;;;;4.50;4.10;;;18.40;64.40;;;;;;5113411;28;20180;-61
2023/05/10 05:29:56;;;;;;;5.35;4.85;;;18.40;64.40;;;;;;5112165;28;20169;-63
2023/05/10 05:32:22;;;;;;;4.75;4.35;;;18.50;64.50;;;;;;5112120;28;20174;-63
2023/05/10 05:34:48;;;;;;;5.15;4.75;;;18.50;64.50;;;;;;5113266;28;20238;-63
2023/05/10 05:37:14;;;;;;;4.20;3.80;;;18.50;64.50;;;;;;5112391;28;20631;-61
2023/05/10 05:39:40;;;;;;;4.68;4.28;;;18.50;64.50;;;;;;5112203;28;20607;-62
2023/05/10 05:42:05;;;;;;;4.72;4.32;;;18.40;64.40;;;;;;5115004;28;20176;-62
2023/05/10 05:44:31;;;;;;;5.68;4.90;;;18.40;64.40;;;;;;5116918;28;20177;-62
2023/05/10 05:46:56;;;;;;;4.82;4.43;;;18.50;64.50;;;;;;5116309;27;20669;-62
2023/05/10 05:49:22;;;;;;;4.45;4.05;;;18.50;64.50;;;;;;5116617;28;20169;-62
2023/05/10 05:51:49;;;;;;;4.53;4.13;;;18.50;64.50;;;;;;5117034;28;20264;-61
2023/05/10 05:54:14;;;;;;;4.75;4.35;;;18.40;64.40;;;;;;5116130;28;20169;-61
2023/05/10 05:56:40;;;;;;;4.82;4.43;;;18.50;64.50;;;;;;5116903;28;20623;-61
2023/05/10 05:59:05;;;;;;;4.63;4.22;;;18.50;64.50;;;;;;5116348;28;20705;-62
2023/05/10 06:01:31;;;;;;;5.30;4.88;;;18.50;64.40;;;;;;5115847;28;20260;-62
2023/05/10 06:03:56;;;;;;;4.97;4.57;;;18.50;64.50;;;;;;5116682;28;20264;-62
2023/05/10 06:06:22;;;;;;;4.82;4.38;;;18.50;64.40;;;;;;5116329;28;20223;-62
2023/05/10 06:08:47;;;;;;;5.68;4.90;;;18.50;64.40;;;;;;5115823;28;20191;-62
2023/05/10 06:11:13;;;;;;;5.18;4.68;;;18.50;64.50;;;;;;5116397;28;20184;-61
2023/05/10 06:13:38;;;;;;;5.30;4.80;;;18.50;64.60;;;;;;5116612;28;20180;-61
2023/05/10 06:16:05;;;;;;;5.05;4.55;;;18.50;64.50;;;;;;5115648;28;20177;-62
2023/05/10 06:18:31;;;;;;;5.30;4.80;;;18.50;64.50;;;;;;5116498;28;20181;-61
2023/05/10 06:20:57;;;;;;;5.40;4.90;;;18.50;64.70;;;;;;5115824;27;20314;-61
2023/05/10 06:23:22;;;;;;;5.60;5.07;;;18.50;64.70;;;;;;5115897;28;20253;-61
2023/05/10 06:25:48;;;;;;;6.10;5.47;;;18.50;64.70;;;;;;5116422;28;20247;-61
2023/05/10 06:28:13;;;;;;;5.18;4.68;;;18.50;64.70;;;;;;5115351;28;20165;-62
2023/05/10 06:30:39;;;;;;;5.03;4.53;;;18.50;64.70;;;;;;5116308;28;20263;-62
2023/05/10 06:33:04;;;;;;;5.63;5.13;;;18.50;64.80;;;;;;5116020;28;20165;-62
2023/05/10 06:35:31;;;;;;;4.75;4.35;;;18.50;64.80;;;;;;5115378;28;20169;-62
2023/05/10 06:37:57;;;;;;;5.28;4.78;;;18.50;64.70;;;;;;5116022;28;20621;-61
2023/05/10 06:40:22;;;;;;;5.88;5.28;;;18.50;64.70;;;;;;5115618;28;20264;-61
2023/05/10 06:42:48;;;;;;;5.03;4.57;;;18.50;64.80;;;;;;5115129;28;20268;-61
2023/05/10 06:45:14;;;;;;;5.43;4.78;;;18.50;64.80;;;;;;5115448;28;20288;-62
2023/05/10 06:47:40;;;;;;;5.75;5.15;;;18.50;64.80;;;;;;5115842;28;20203;-62
2023/05/10 06:50:07;;;;;;;5.80;5.30;;;18.40;64.80;;;;;;5114822;28;20207;-62
2023/05/10 06:52:33;;;;;;;5.10;4.60;;;18.50;64.90;;;;;;5115933;28;20173;-61
2023/05/10 06:54:58;;;;;;;5.03;4.57;;;18.50;64.90;;;;;;5115873;28;20666;-61
2023/05/10 06:57:24;;;;;;;5.25;4.75;;;18.50;65.00;;;;;;5114904;28;20181;-61
2023/05/10 06:59:50;;;;;;;5.50;5.00;;;18.50;64.90;;;;;;5115603;28;20181;-62
2023/05/10 07:02:15;;;;;;;5.80;5.22;;;18.40;64.90;;;;;;5115413;28;20173;-61
2023/05/10 07:04:41;;;;;;;5.90;5.10;;;18.40;64.90;;;;;;5114693;28;20306;-62
2023/05/10 07:07:06;;;;;;;5.68;5.18;;;18.40;64.90;;;;;;5115371;28;20305;-62
2023/05/10 07:09:32;;;;;;;5.97;5.45;;;18.50;64.90;;;;;;5115566;28;20169;-62
2023/05/10 07:11:58;;;;;;;6.38;5.75;;;18.40;64.90;;;;;;5114730;28;20181;-60
2023/05/10 07:14:23;;;;;;;6.10;5.32;;;18.50;64.90;;;;;;5114125;28;20743;-62
2023/05/10 07:16:49;;;;;;;5.72;5.10;;;18.40;65.00;;;;;;5115281;28;20177;-60
2023/05/10 07:19:14;;;;;;;5.45;4.95;;;18.50;64.90;;;;;;5114063;28;20176;-61
2023/05/10 07:21:42;;;;;;;5.65;5.05;;;18.50;64.70;;;;;;5114890;28;20177;-59
2023/05/10 07:24:07;;;;;;;6.10;5.32;;;18.60;64.60;;;;;;5114267;28;20231;-63
2023/05/10 07:26:33;;;;;;;6.60;5.57;;;18.50;64.60;;;;;;5115038;28;20288;-62
2023/05/10 07:28:58;;;;;;;8.02;5.82;;;18.60;64.90;;;;;;5115175;28;20173;-63
2023/05/10 07:31:24;;;;;;;7.85;6.05;;;18.60;64.80;;;;;;5113635;28;20184;-66
2023/05/10 07:33:50;;;;;;;7.47;6.45;;;18.60;65.10;;;;;;5114562;28;20169;-66
2023/05/10 07:36:15;;;;;;;6.93;5.90;;;18.60;64.80;;;;;;5114229;28;20165;-66
2023/05/10 07:38:41;;;;;;;7.25;5.13;;;18.60;65.00;;;;;;5113581;28;20565;-65
2023/05/10 07:41:06;;;;;;;5.95;5.35;;;18.70;65.00;;;;;;5114216;28;20166;-65
2023/05/10 07:43:32;;;;;;;5.57;4.90;;;18.70;64.80;;;;;;5114309;28;20624;-66
2023/05/10 07:45:59;;;;;;;5.82;5.32;;;18.70;64.70;;;;;;5113428;28;20204;-65
2023/05/10 07:48:25;;;;;;;6.90;4.70;;;18.80;64.80;;;;;;5113942;28;20170;-66
2023/05/10 07:50:51;;;;;;;5.45;5.03;;;18.90;65.60;;;;;;5114099;28;20283;-65
2023/05/10 07:53:16;;;;;;;5.13;4.63;;;18.80;64.70;;;;;;5113063;28;20256;-65
2023/05/10 07:55:42;;;;;;;5.45;4.95;;;18.90;64.80;;;;;;5114076;28;20165;-66
2023/05/10 07:58:07;;;;;;;5.25;4.75;;;18.90;64.70;;;;;;5114259;28;20173;-67
2023/05/10 08:00:33;;;;;;;5.80;4.25;;;18.90;64.80;;;;;;5113729;28;20173;-68
2023/05/10 08:02:58;;;;;;;6.35;4.50;;;19.00;64.80;;;;;;5114011;28;20218;-66
2023/05/10 08:05:24;;;;;;;7.18;4.57;;;18.90;64.80;;;;;;5112929;28;20626;-66
2023/05/10 08:07:50;;;;;;;5.45;4.95;;;18.90;64.80;;;;;;5112783;28;20620;-65
2023/05/10 08:10:15;;;;;;;5.45;4.95;;;18.90;64.80;;;;;;5113564;28;20180;-64
2023/05/10 08:12:41;;;;;;;5.18;4.70;;;18.90;64.80;;;;;;5113767;28;20265;-64
2023/05/10 08:15:07;;;;;;;4.70;4.30;;;18.90;64.70;;;;;;5113000;28;20647;-62
2023/05/10 08:17:32;;;;;;;5.47;4.97;;;18.90;64.60;;;;;;5112854;28;20685;-64
2023/05/10 08:19:58;;;;;;;5.40;4.72;;;19.00;64.60;;;;;;5113933;28;20699;-64
2023/05/10 08:22:23;;;;;;;5.93;5.43;;;19.00;64.60;;;;;;5112843;28;20217;-63
2023/05/10 08:24:49;;;;;;;6.10;5.50;;;19.00;64.40;;;;;;5113780;27;20299;-63
2023/05/10 08:27:14;;;;;;;6.55;5.95;;;19.10;64.30;;;;;;5122582;27;20251;-64
2023/05/10 08:29:40;;;;;;;6.35;5.63;;;19.10;64.20;;;;;;5120683;27;20167;-65
2023/05/10 08:32:05;;;;;;;6.68;6.03;;;19.10;64.20;;;;;;5134126;27;20233;-64
2023/05/10 08:34:31;;;;;;;6.55;5.57;;;19.10;64.10;;;;;;5120886;27;20165;-65
2023/05/10 08:36:56;;;;;;;8.05;5.97;;;19.10;64.20;;;;;;5113712;28;20196;-63
2023/05/10 08:39:23;;;;;;;6.53;5.90;;;19.10;64.20;;;;;;5113246;28;20275;-64
2023/05/10 08:41:48;;;;;;;8.63;5.97;;;19.10;64.30;;;;;;5114632;27;20256;-64
2023/05/10 08:44:14;;;;;;;6.68;6.03;;;19.10;64.30;;;;;;5132583;27;20278;-64
2023/05/10 08:46:42;;;;;;;6.72;6.13;;;19.10;64.30;;;;;;5119208;27;20237;-65
2023/05/10 08:49:08;;;;;;;8.25;6.20;;;19.10;64.40;;;;;;5110977;28;20180;-65
2023/05/10 08:51:36;;;;;;;6.22;5.63;;;19.10;64.30;;;;;;5112201;28;20210;-65
2023/05/10 08:54:02;;;;;;;6.65;6.05;;;19.10;64.20;;;;;;5113658;28;20180;-65
2023/05/10 08:56:28;;;;;;;6.40;5.80;;;19.10;65.00;;;;;;5110061;28;20628;-65
2023/05/10 08:58:53;;;;;;;6.78;6.13;;;19.10;64.20;;;;;;5112194;28;20180;-66
2023/05/10 09:01:19;;;;;;;6.57;5.68;;;19.10;64.30;;;;;;5111925;28;20572;-65
2023/05/10 09:03:46;;;;;;;5.80;5.20;;;19.00;64.20;;;;;;5111442;28;20176;-66
2023/05/10 09:06:12;;;;;;;7.13;6.07;;;19.00;64.30;;;;;;5113042;28;20604;-66
2023/05/10 09:08:37;;;;;;;6.70;6.05;;;19.00;64.40;;;;;;5112301;28;20650;-65
2023/05/10 09:11:03;;;;;;;7.28;5.97;;;18.90;64.30;;;;;;5112682;28;20169;-65
2023/05/10 09:13:28;;;;;;;6.13;5.47;;;18.90;64.40;;;;;;5111795;28;20635;-65
2023/05/10 09:15:54;;;;;;;7.57;5.93;;;18.90;64.50;;;;;;5112447;28;20180;-64
2023/05/10 09:18:19;;;;;;;6.05;5.45;;;18.90;64.50;;;;;;5116735;28;20165;-64
2023/05/10 09:20:45;;;;;;;5.97;5.45;;;18.90;64.50;;;;;;5117652;28;20172;-64
2023/05/10 09:23:10;;;;;;;6.80;5.90;;;19.00;64.40;;;;;;5116978;28;20213;-64
2023/05/10 09:25:38;;;;;;;7.38;6.00;;;19.00;64.30;;;;;;5116917;28;20282;-65
2023/05/10 09:28:06;;;;;;;6.57;5.97;;;19.00;64.20;;;;;;5117364;28;20252;-65
2023/05/10 09:30:31;;;;;;;6.72;5.95;;;19.00;65.10;;;;;;5117418;28;20221;-66
2023/05/10 09:32:58;;;;;;;9.25;6.20;;;19.00;64.30;;;;;;5116555;28;20679;-66
2023/05/10 09:35:24;;;;;;;6.53;5.90;;;19.00;64.30;;;;;;5116815;28;20612;-65
2023/05/10 09:37:51;;;;;;;5.95;5.45;;;19.00;64.20;;;;;;5116530;28;20261;-65
2023/05/10 09:40:21;;;;;;;6.50;5.90;;;19.00;64.00;;;;;;5117122;28;20184;-65
2023/05/10 09:43:03;;;;;;;6.53;5.85;;;19.10;64.00;;;;;;5117235;28;20177;-65
2023/05/10 09:45:30;;;;;;;6.45;5.75;;;19.10;64.00;;;;;;5115881;28;20560;-65
2023/05/10 09:47:56;;;;;;;6.35;5.50;;;19.20;63.90;;;;;;5117258;28;20177;-66
2023/05/10 09:50:22;;;;;;;6.05;5.45;;;19.20;63.80;;;;;;5116847;28;20169;-66
2023/05/10 09:52:54;;;;;;;6.63;5.93;;;19.20;63.70;;;;;;5115264;28;20172;-66
2023/05/10 09:55:21;;;;;;;5.60;5.03;;;19.20;63.70;;;;;;5116856;28;20252;-65
2023/05/10 09:57:48;;;;;;;6.22;5.28;;;19.20;63.60;;;;;;5116719;28;20206;-66
2023/05/10 10:00:18;;;;;;;6.00;5.50;;;19.30;63.60;;;;;;5116031;28;20181;-66
2023/05/10 10:02:45;;;;;;;5.15;4.75;;;19.30;63.60;;;;;;5116884;28;20185;-66
2023/05/10 10:05:11;;;;;;;6.38;5.78;;;19.30;63.50;;;;;;5114991;28;20774;-66
2023/05/10 10:07:36;;;;;;;5.38;4.88;;;19.30;63.40;;;;;;5114706;28;20212;-66
2023/05/10 10:10:02;;;;;;;5.80;5.10;;;19.40;63.30;;;;;;5115340;28;20180;-64
2023/05/10 10:12:28;;;;;;;5.97;5.45;;;19.40;63.20;;;;;;5115191;28;20185;-65
2023/05/10 10:14:53;;;;;;;5.28;4.78;;;19.50;63.10;;;;;;5115965;28;20174;-64
2023/05/10 10:17:19;;;;;;;4.80;4.40;;;19.50;63.00;;;;;;5116386;28;20559;-64
2023/05/10 10:19:44;;;;;;;5.65;4.88;;;19.40;63.00;;;;;;5115319;28;20578;-65
2023/05/10 10:22:11;;;;;;;5.50;5.00;;;19.40;63.10;;;;;;5114054;28;20582;-65
2023/05/10 10:24:39;;;;;;;5.50;5.00;;;19.40;63.30;;;;;;5116415;28;20248;-65
2023/05/10 10:27:16;;;;;;;5.60;4.55;;;19.40;63.40;;;;;;5113731;28;20601;-66
2023/05/10 10:30:02;;;;;;;4.90;4.40;;;19.40;63.40;;;;;;5115144;28;20173;-66
2023/05/10 10:32:54;;;;;;;5.40;4.90;;;19.40;63.50;;;;;;5114723;28;20533;-66
2023/05/10 10:35:20;;;;;;;5.10;4.68;;;19.40;63.50;;;;;;5114051;28;20180;-66
2023/05/10 10:37:47;;;;;;;5.22;4.75;;;19.30;63.50;;;;;;5116098;28;20169;-66
2023/05/10 10:40:31;;;;;;;4.95;4.45;;;19.30;63.60;;;;;;5115867;28;20169;-65
2023/05/10 10:42:57;;;;;;;4.60;4.20;;;19.30;63.60;;;;;;5115479;28;20176;-66
2023/05/10 10:45:23;;;;;;;4.68;4.28;;;19.30;63.60;;;;;;5115595;28;20201;-66
2023/05/10 10:47:53;;;;;;;4.60;4.20;;;19.30;63.70;;;;;;5116011;28;20226;-66
2023/05/10 10:50:18;;;;;;;4.80;4.40;;;19.30;63.70;;;;;;5114978;28;20174;-65
2023/05/10 10:52:45;;;;;;;5.05;4.63;;;19.30;63.80;;;;;;5115937;28;20169;-66
2023/05/10 10:55:14;;;;;;;4.63;4.22;;;19.20;63.80;;;;;;5114822;28;20177;-65
2023/05/10 10:57:53;;;;;;;4.45;4.05;;;19.20;63.80;;;;;;5115553;28;20670;-66
2023/05/10 11:00:23;;;;;;;5.25;4.72;;;19.20;63.80;;;;;;5115295;28;20179;-66
2023/05/10 11:02:51;;;;;;;4.15;3.85;;;19.20;63.80;;;;;;5115111;28;20627;-67
2023/05/10 11:05:29;;;;;;;4.80;4.40;;;19.30;63.80;;;;;;5115400;28;20295;-66
2023/05/10 11:07:54;;;;;;;4.63;4.22;;;19.40;63.50;;;;;;5115511;28;20640;-66
2023/05/10 11:10:21;;;;;;;5.05;4.65;;;19.50;63.40;;;;;;5114411;28;20216;-66
2023/05/10 11:13:00;;;;;;;4.88;4.38;;;19.50;63.20;;;;;;5115378;28;20181;-65
2023/05/10 11:15:32;;;;;;;4.82;4.43;;;19.50;63.10;;;;;;5115217;28;20603;-65
2023/05/10 11:17:58;;;;;;;4.30;4.00;;;19.50;63.20;;;;;;5114448;28;20635;-65
2023/05/10 11:20:28;;;;;;;4.43;4.13;;;19.40;63.30;;;;;;5113778;28;20181;-65
2023/05/10 11:22:54;;;;;;;4.47;4.10;;;19.30;63.40;;;;;;5113809;28;20232;-65
2023/05/10 11:25:22;;;;;;;4.25;3.88;;;19.30;63.60;;;;;;5113930;28;20213;-65
2023/05/10 11:27:48;;;;;;;4.60;4.20;;;19.30;63.70;;;;;;5113945;28;20177;-66
2023/05/10 11:30:13;;;;;;;4.57;4.18;;;19.20;63.80;;;;;;5114393;28;20177;-66
2023/05/10 11:32:39;;;;;;;5.28;4.30;;;19.30;63.90;;;;;;5113757;28;20181;-67
2023/05/10 11:35:11;;;;;;;5.03;4.63;;;19.30;63.90;;;;;;5113476;28;20173;-65
2023/05/10 11:37:40;;;;;;;4.68;4.28;;;19.30;63.90;;;;;;5114096;27;20177;-66
2023/05/10 11:40:09;;;;;;;4.82;4.43;;;19.30;63.90;;;;;;5113782;28;20169;-66
2023/05/10 11:42:38;;;;;;;4.47;4.07;;;19.30;63.90;;;;;;5114829;28;20175;-66
2023/05/10 11:45:04;;;;;;;4.50;4.10;;;19.30;63.90;;;;;;5114010;28;20247;-65
2023/05/10 11:47:30;;;;;;;4.00;3.70;;;19.30;63.90;;;;;;5114747;28;20199;-66
2023/05/10 11:49:55;;;;;;;4.50;4.10;;;19.20;63.90;;;;;;5113414;28;20634;-65
2023/05/10 11:52:21;;;;;;;4.65;4.25;;;19.20;63.90;;;;;;5112310;28;20177;-65
2023/05/10 11:54:53;;;;;;;4.45;4.05;;;19.20;64.00;;;;;;5114745;28;20180;-65
2023/05/10 11:57:22;;;;;;;4.65;4.25;;;19.20;63.90;;;;;;5114318;28;20177;-65
2023/05/10 11:59:49;;;;;;;4.30;3.95;;;19.20;64.00;;;;;;5113819;28;20187;-67
2023/05/10 12:02:15;;;;;;;4.00;3.70;;;19.20;64.10;;;;;;5112725;28;20170;-66
2023/05/10 12:04:41;;;;;;;4.28;3.95;;;19.20;64.10;;;;;;5114329;28;20177;-67
2023/05/10 12:07:06;;;;;;;4.63;4.20;;;19.20;64.00;;;;;;5112066;28;20173;-66
2023/05/10 12:09:32;;;;;;;4.75;4.35;;;19.20;64.00;;;;;;5113187;28;20204;-66
2023/05/10 12:11:57;;;;;;;4.30;4.00;;;19.20;64.00;;;;;;5114068;28;20577;-65
2023/05/10 12:14:24;;;;;;;4.40;4.07;;;19.20;63.90;;;;;;5113177;28;20624;-65
2023/05/10 12:16:49;;;;;;;4.25;3.90;;;19.20;63.90;;;;;;5114242;28;20243;-65
2023/05/10 12:19:18;;;;;;;4.10;3.70;;;19.20;63.80;;;;;;5113859;28;20168;-64
2023/05/10 12:21:44;;;;;;;4.63;4.22;;;19.30;63.70;;;;;;5113303;28;20180;-65
2023/05/10 12:24:10;;;;;;;4.40;4.10;;;19.30;63.70;;;;;;5112527;28;20177;-64
2023/05/10 12:26:36;;;;;;;4.35;3.95;;;19.30;63.60;;;;;;5112206;28;20213;-65
2023/05/10 12:29:15;;;;;;;3.95;3.65;;;19.30;63.60;;;;;;5114140;28;20177;-65
2023/05/10 12:31:58;;;;;;;4.32;3.92;;;19.30;63.70;;;;;;5113890;28;20296;-66
2023/05/10 12:34:30;;;;;;;4.53;4.13;;;19.30;63.70;;;;;;5113046;28;20534;-66
2023/05/10 12:36:56;;;;;;;4.30;4.00;;;19.30;63.70;;;;;;5113839;28;20173;-66
2023/05/10 12:39:21;;;;;;;4.60;4.20;;;19.30;63.60;;;;;;5113655;28;20707;-65
2023/05/10 12:41:47;;;;;;;4.53;4.20;;;19.30;63.40;;;;;;5112852;28;20172;-65
2023/05/10 12:44:12;;;;;;;3.90;3.60;;;19.40;63.40;;;;;;5113274;28;20181;-65
2023/05/10 12:46:38;;;;;;;4.25;3.88;;;19.40;63.20;;;;;;5113713;28;20269;-65